createdAt,value
2023-03-16T00:00:43.549Z,101504.88
2023-03-16T00:03:19.582Z,101509.88
2023-03-16T00:05:50.901Z,101508.81
2023-03-16T00:08:24.738Z,101517.34
2023-03-16T00:10:54.403Z,101514.03
2023-03-16T00:13:25.317Z,101514.28
2023-03-16T00:15:54.915Z,101524.03
2023-03-16T00:18:27.458Z,101513.59
2023-03-16T00:21:01.100Z,101521.91
2023-03-16T00:23:36.173Z,101517.50
2023-03-16T00:26:06.499Z,101526.75
2023-03-16T00:28:36.533Z,101551.78
2023-03-16T00:31:05.853Z,101555.81
2023-03-16T00:33:36.164Z,101564.50
2023-03-16T00:36:11.757Z,101551.22
2023-03-16T00:38:45.591Z,101562.03
2023-03-16T00:41:17.597Z,101512.47
2023-03-16T00:43:46.385Z,101569.78
2023-03-16T00:46:17.390Z,101553.97
2023-03-16T00:48:54.671Z,101556.22
2023-03-16T00:51:22.993Z,101535.09
2023-03-16T00:53:52.693Z,101579.47
2023-03-16T00:56:20.921Z,101580.19
2023-03-16T00:58:49.072Z,101574.88
2023-03-16T01:01:21.989Z,101585.22
2023-03-16T01:03:50.302Z,101598.44
2023-03-16T01:06:23.809Z,101596.34
2023-03-16T01:08:53.861Z,101589.78
2023-03-16T01:11:24.345Z,101597.50
2023-03-16T01:13:54.492Z,101599.34
2023-03-16T01:16:24.587Z,101600.84
2023-03-16T01:18:53.790Z,101609.19
2023-03-16T01:21:22.985Z,101603.53
2023-03-16T01:23:55.764Z,101612.50
2023-03-16T01:26:28.083Z,101615.13
2023-03-16T01:29:02.504Z,101612.28
2023-03-16T01:31:33.841Z,101601.31
2023-03-16T01:34:05.047Z,101618.53
2023-03-16T01:36:33.299Z,101622.28
2023-03-16T01:39:03.135Z,101621.88
2023-03-16T01:41:31.529Z,101600.22
2023-03-16T01:44:00.171Z,101622.00
2023-03-16T01:46:34.794Z,101623.41
2023-03-16T01:49:08.272Z,101637.00
2023-03-16T01:51:44.698Z,101630.06
2023-03-16T01:54:25.505Z,101629.13
2023-03-16T01:57:00.944Z,101630.59
2023-03-16T01:59:48.806Z,101628.03
2023-03-16T02:02:20.837Z,101633.34
2023-03-16T02:05:00.013Z,101617.38
2023-03-16T02:07:38.569Z,101638.78
2023-03-16T02:10:13.985Z,101644.22
2023-03-16T02:12:48.683Z,101651.53
2023-03-16T02:15:16.943Z,101635.66
2023-03-16T02:17:47.757Z,101656.78
2023-03-16T02:20:28.708Z,101626.44
2023-03-16T02:23:00.131Z,101662.34
2023-03-16T02:25:36.874Z,101668.31
2023-03-16T02:28:16.851Z,101671.56
2023-03-16T02:30:48.362Z,101677.34
2023-03-16T02:33:21.807Z,101682.75
2023-03-16T02:35:59.133Z,101684.22
2023-03-16T02:38:28.016Z,101686.22
2023-03-16T02:41:01.657Z,101685.72
2023-03-16T02:43:44.043Z,101676.63
2023-03-16T02:46:15.248Z,101635.84
2023-03-16T02:48:47.050Z,101661.06
2023-03-16T02:51:17.437Z,101679.91
2023-03-16T02:53:45.891Z,101667.13
2023-03-16T02:56:16.178Z,101692.59
2023-03-16T02:58:49.809Z,101700.19
2023-03-16T03:01:20.444Z,101701.84
2023-03-16T03:03:48.593Z,101688.22
2023-03-16T03:06:28.391Z,101707.22
2023-03-16T03:08:59.436Z,101709.50
2023-03-16T03:11:30.781Z,101700.75
2023-03-16T03:14:04.199Z,101703.91
2023-03-16T03:16:34.323Z,101717.50
2023-03-16T03:19:05.756Z,101709.38
2023-03-16T03:21:35.853Z,101713.31
2023-03-16T03:24:04.092Z,101673.75
2023-03-16T03:26:35.423Z,101711.66
2023-03-16T03:29:05.566Z,101728.16
2023-03-16T03:31:35.353Z,101718.13
2023-03-16T03:34:06.845Z,101710.53
2023-03-16T03:36:35.727Z,101738.06
2023-03-16T03:39:05.690Z,101721.31
2023-03-16T03:41:34.728Z,101730.84
2023-03-16T03:44:06.348Z,101711.16
2023-03-16T03:46:36.402Z,101734.50
2023-03-16T03:49:07.633Z,101731.72
2023-03-16T03:51:36.388Z,101728.41
2023-03-16T03:54:09.474Z,101727.41
2023-03-16T03:56:38.059Z,101731.22
2023-03-16T03:59:06.124Z,101719.53
2023-03-16T04:01:40.321Z,101739.38
2023-03-16T04:04:08.626Z,101737.72
2023-03-16T04:06:39.864Z,101720.09
2023-03-16T04:09:08.039Z,101744.00
2023-03-16T04:11:36.523Z,101731.19
2023-03-16T04:14:05.125Z,101750.31
2023-03-16T04:16:38.736Z,101718.22
2023-03-16T04:19:07.109Z,101757.03
2023-03-16T04:21:35.296Z,101743.75
2023-03-16T04:24:05.816Z,101743.00
2023-03-16T04:26:36.868Z,101765.78
2023-03-16T04:29:05.262Z,101747.88
2023-03-16T04:31:33.656Z,101753.13
2023-03-16T04:34:03.530Z,101764.97
2023-03-16T04:36:33.254Z,101758.53
2023-03-16T04:39:04.437Z,101781.91
2023-03-16T04:41:33.173Z,101762.97
2023-03-16T04:44:04.343Z,101763.59
2023-03-16T04:46:32.810Z,101768.34
2023-03-16T04:49:09.915Z,101755.53
2023-03-16T04:51:40.855Z,101772.75
2023-03-16T04:54:09.356Z,101778.78
2023-03-16T04:56:37.514Z,101783.13
2023-03-16T04:59:06.980Z,101791.34
2023-03-16T05:01:38.470Z,101784.50
2023-03-16T05:04:15.049Z,101776.84
2023-03-16T05:06:47.327Z,101799.81
2023-03-16T05:09:17.955Z,101798.31
2023-03-16T05:11:46.170Z,101808.31
2023-03-16T05:14:14.738Z,101808.56
2023-03-16T05:16:43.231Z,101803.50
2023-03-16T05:19:13.098Z,101800.72
2023-03-16T05:21:41.312Z,101814.44
2023-03-16T05:24:09.854Z,101813.22
2023-03-16T05:26:40.981Z,101820.84
2023-03-16T05:29:09.143Z,101828.03
2023-03-16T05:31:38.666Z,101830.56
2023-03-16T05:34:06.746Z,101828.81
2023-03-16T05:36:39.419Z,101835.22
2023-03-16T05:39:08.574Z,101844.16
2023-03-16T05:41:37.100Z,101827.03
2023-03-16T05:44:05.874Z,101849.31
2023-03-16T05:46:34.586Z,101839.31
2023-03-16T05:49:03.069Z,101846.63
2023-03-16T05:51:40.123Z,101860.25
2023-03-16T05:54:08.420Z,101869.59
2023-03-16T05:56:36.946Z,101861.59
2023-03-16T05:59:05.656Z,101864.88
2023-03-16T06:01:34.496Z,101864.72
2023-03-16T06:04:03.481Z,101862.94
2023-03-16T06:06:31.667Z,101858.03
2023-03-16T06:09:01.659Z,101880.78
2023-03-16T06:11:30.001Z,101868.03
2023-03-16T06:13:58.326Z,101857.09
2023-03-16T06:16:27.291Z,101872.53
2023-03-16T06:18:59.161Z,101881.28
2023-03-16T06:21:28.279Z,101869.41
2023-03-16T06:23:57.141Z,101876.69
2023-03-16T06:26:27.301Z,101872.97
2023-03-16T06:28:56.439Z,101750.81
2023-03-16T06:31:24.490Z,101881.72
2023-03-16T06:33:52.804Z,101890.47
2023-03-16T06:36:21.718Z,101884.53
2023-03-16T06:38:49.962Z,101875.50
2023-03-16T06:41:18.565Z,101878.19
2023-03-16T06:43:48.455Z,101890.06
2023-03-16T06:46:16.949Z,101891.16
2023-03-16T06:48:46.992Z,101895.81
2023-03-16T06:51:16.840Z,101897.06
2023-03-16T06:53:45.309Z,101874.75
2023-03-16T06:56:13.643Z,101879.13
2023-03-16T06:58:41.945Z,101888.16
2023-03-16T07:01:12.632Z,101899.09
2023-03-16T07:03:42.042Z,101899.63
2023-03-16T07:06:10.297Z,101896.75
2023-03-16T07:08:38.535Z,101896.91
2023-03-16T07:11:07.451Z,101895.75
2023-03-16T07:13:35.981Z,101883.03
2023-03-16T07:16:04.995Z,101897.66
2023-03-16T07:18:34.730Z,101901.75
2023-03-16T07:21:02.932Z,101897.16
2023-03-16T07:23:31.073Z,101890.31
2023-03-16T07:25:59.423Z,101906.03
2023-03-16T07:28:28.367Z,101881.16
2023-03-16T07:31:03.937Z,101914.94
2023-03-16T07:33:34.437Z,101918.59
2023-03-16T07:36:04.488Z,101872.69
2023-03-16T07:38:33.669Z,101919.63
2023-03-16T07:41:02.389Z,101908.75
2023-03-16T07:43:30.566Z,101917.97
2023-03-16T07:45:58.811Z,101929.59
2023-03-16T07:48:27.436Z,101931.59
2023-03-16T07:50:57.008Z,101917.84
2023-03-16T07:53:25.556Z,101923.19
2023-03-16T07:55:53.748Z,101929.63
2023-03-16T07:58:21.803Z,101926.97
2023-03-16T08:00:50.311Z,101930.97
2023-03-16T08:03:18.805Z,101929.75
2023-03-16T08:05:46.930Z,101932.00
2023-03-16T08:08:16.871Z,101922.56
2023-03-16T08:10:45.380Z,101930.75
2023-03-16T08:13:14.092Z,101921.22
2023-03-16T08:15:42.667Z,101930.59
2023-03-16T08:18:11.055Z,101927.41
2023-03-16T08:20:39.365Z,101930.19
2023-03-16T08:23:07.543Z,101936.72
2023-03-16T08:25:37.235Z,101940.09
2023-03-16T08:28:06.019Z,101940.44
2023-03-16T08:30:35.247Z,101945.16
2023-03-16T08:33:03.986Z,101926.19
2023-03-16T08:35:32.394Z,101910.53
2023-03-16T08:38:00.574Z,101955.44
2023-03-16T08:40:30.096Z,101952.06
2023-03-16T08:42:59.762Z,101950.78
2023-03-16T08:45:28.745Z,101951.16
2023-03-16T08:47:57.127Z,101950.47
2023-03-16T08:50:25.562Z,101909.88
2023-03-16T08:52:53.820Z,101957.00
2023-03-16T08:55:21.982Z,101928.94
2023-03-16T08:57:50.420Z,101950.25
2023-03-16T09:00:21.013Z,101953.94
2023-03-16T09:02:49.320Z,101950.72
2023-03-16T09:05:18.401Z,101958.69
2023-03-16T09:07:48.904Z,101952.50
2023-03-16T09:10:19.145Z,101959.91
2023-03-16T09:12:47.817Z,101961.22
2023-03-16T09:15:16.131Z,101962.22
2023-03-16T09:17:46.442Z,101941.25
2023-03-16T09:20:25.969Z,101968.69
2023-03-16T09:22:56.826Z,101972.81
2023-03-16T09:25:25.592Z,101975.38
2023-03-16T09:27:54.141Z,101958.69
2023-03-16T09:30:22.764Z,101965.72
2023-03-16T09:32:52.584Z,101978.25
2023-03-16T09:35:20.769Z,101965.97
2023-03-16T09:38:05.348Z,101975.69
2023-03-16T09:40:36.342Z,101966.53
2023-03-16T09:43:41.124Z,101974.06
2023-03-16T09:46:13.143Z,101977.28
2023-03-16T09:48:42.747Z,101982.88
2023-03-16T09:51:20.173Z,101984.34
2023-03-16T09:53:50.625Z,101977.63
2023-03-16T09:56:25.470Z,101981.78
2023-03-16T09:58:53.618Z,101985.47
2023-03-16T10:01:36.004Z,101989.78
2023-03-16T10:04:25.520Z,101989.91
2023-03-16T10:07:03.816Z,101982.94
2023-03-16T10:09:38.305Z,101989.44
2023-03-16T10:12:08.979Z,101991.41
2023-03-16T10:14:48.495Z,101980.91
2023-03-16T10:17:21.200Z,101988.97
2023-03-16T10:19:54.653Z,101988.09
2023-03-16T10:22:26.678Z,101984.56
2023-03-16T10:25:03.767Z,101982.06
2023-03-16T10:27:33.457Z,101975.88
2023-03-16T10:30:03.746Z,101981.13
2023-03-16T10:32:34.735Z,101995.31
2023-03-16T10:35:08.271Z,101989.97
2023-03-16T10:37:37.665Z,101990.97
2023-03-16T10:40:12.496Z,101976.16
2023-03-16T10:42:41.789Z,101958.13
2023-03-16T10:45:24.178Z,101988.25
2023-03-16T10:47:52.743Z,101972.19
2023-03-16T10:50:27.870Z,101972.56
2023-03-16T10:52:58.272Z,101969.25
2023-03-16T10:55:31.233Z,101976.59
2023-03-16T10:58:01.782Z,101966.97
2023-03-16T11:00:32.276Z,101966.28
2023-03-16T11:03:02.656Z,101941.53
2023-03-16T11:05:34.644Z,101966.91
2023-03-16T11:08:10.901Z,101978.03
2023-03-16T11:10:54.669Z,101969.47
2023-03-16T11:13:27.756Z,101977.66
2023-03-16T11:16:01.969Z,101984.63
2023-03-16T11:18:34.027Z,101975.94
2023-03-16T11:21:08.193Z,101982.19
2023-03-16T11:23:41.082Z,101973.22
2023-03-16T11:26:19.850Z,101962.81
2023-03-16T11:28:54.799Z,101961.13
2023-03-16T11:31:34.215Z,101967.22
2023-03-16T11:34:03.174Z,101965.84
2023-03-16T11:36:45.480Z,101971.44
2023-03-16T11:39:24.669Z,101968.88
2023-03-16T11:42:02.516Z,101967.53
2023-03-16T11:44:37.936Z,101941.81
2023-03-16T11:47:17.263Z,101956.41
2023-03-16T11:49:56.761Z,101950.97
2023-03-16T11:52:38.700Z,101949.31
2023-03-16T11:55:21.436Z,101951.41
2023-03-16T11:58:01.310Z,101938.94
2023-03-16T12:00:38.700Z,101962.00
2023-03-16T12:03:33.972Z,101948.16
2023-03-16T12:06:22.218Z,101942.53
2023-03-16T12:09:37.879Z,101942.47
2023-03-16T12:12:18.203Z,101918.22
2023-03-16T12:14:52.723Z,101935.44
2023-03-16T12:17:24.583Z,101938.00
2023-03-16T12:19:58.866Z,101939.94
2023-03-16T12:22:31.174Z,101928.44
2023-03-16T12:25:01.462Z,101885.09
2023-03-16T12:27:34.345Z,101908.81
2023-03-16T12:30:14.349Z,101921.19
2023-03-16T12:32:46.984Z,101917.59
2023-03-16T12:35:26.881Z,101920.25
2023-03-16T12:38:08.143Z,101902.09
2023-03-16T12:40:49.020Z,101874.72
2023-03-16T12:43:36.444Z,101906.59
2023-03-16T12:46:11.796Z,101903.06
2023-03-16T12:48:44.874Z,101882.88
2023-03-16T12:51:13.108Z,101900.88
2023-03-16T12:53:47.104Z,101878.50
2023-03-16T12:56:19.252Z,101884.00
2023-03-16T12:58:50.447Z,101885.84
2023-03-16T13:01:21.609Z,101891.03
2023-03-16T13:03:52.127Z,101899.59
2023-03-16T13:06:24.177Z,101870.38
2023-03-16T13:08:57.932Z,101895.06
2023-03-16T13:11:28.862Z,101873.00
2023-03-16T13:14:11.136Z,101850.09
2023-03-16T13:16:40.279Z,101859.25
2023-03-16T13:19:28.522Z,101876.63
2023-03-16T13:22:05.326Z,101876.25
2023-03-16T13:24:41.310Z,101883.63
2023-03-16T13:27:23.368Z,101876.63
2023-03-16T13:29:56.846Z,101885.63
2023-03-16T13:32:28.668Z,101874.41
2023-03-16T13:35:00.755Z,101871.00
2023-03-16T13:37:30.450Z,101870.06
2023-03-16T13:39:59.962Z,101846.56
2023-03-16T13:42:32.094Z,101873.00
2023-03-16T13:45:08.902Z,101865.81
2023-03-16T13:47:37.124Z,101869.31
2023-03-16T13:50:06.192Z,101849.25
2023-03-16T13:52:35.823Z,101865.97
2023-03-16T13:55:08.200Z,101859.75
2023-03-16T13:57:42.589Z,101874.06
2023-03-16T14:00:18.421Z,101850.16
2023-03-16T14:02:49.529Z,101872.22
2023-03-16T14:05:20.668Z,101867.72
2023-03-16T14:07:50.971Z,101855.28
2023-03-16T14:10:19.841Z,101853.75
2023-03-16T14:12:59.915Z,101846.50
2023-03-16T14:15:31.180Z,101853.44
2023-03-16T14:18:14.726Z,101861.28
2023-03-16T14:20:43.194Z,101849.94
2023-03-16T14:23:20.385Z,101855.28
2023-03-16T14:25:50.129Z,101849.22
2023-03-16T14:28:23.695Z,101843.03
2023-03-16T14:30:53.506Z,101846.44
2023-03-16T14:33:29.991Z,101837.91
2023-03-16T14:36:00.778Z,101836.88
2023-03-16T14:38:33.921Z,101784.81
2023-03-16T14:41:07.616Z,101829.19
2023-03-16T14:43:40.475Z,101831.94
2023-03-16T14:46:09.389Z,101841.25
2023-03-16T14:48:38.770Z,101830.59
2023-03-16T14:51:07.488Z,101825.44
2023-03-16T14:53:35.796Z,101825.53
2023-03-16T14:56:04.009Z,101823.88
2023-03-16T14:58:32.147Z,101823.56
2023-03-16T15:01:01.847Z,101827.16
2023-03-16T15:03:34.271Z,101816.56
2023-03-16T15:06:03.404Z,101808.84
2023-03-16T15:08:37.192Z,101806.06
2023-03-16T15:11:07.598Z,101784.03
2023-03-16T15:13:53.468Z,101813.00
2023-03-16T15:16:24.184Z,101811.25
2023-03-16T15:18:53.160Z,101809.66
2023-03-16T15:21:25.896Z,101798.38
2023-03-16T15:23:54.074Z,101810.63
2023-03-16T15:26:26.778Z,101799.31
2023-03-16T15:28:55.588Z,101794.16
2023-03-16T15:31:25.576Z,101782.31
2023-03-16T15:33:54.065Z,101793.91
2023-03-16T15:36:25.055Z,101789.53
2023-03-16T15:38:55.648Z,101784.97
2023-03-16T15:41:24.951Z,101783.91
2023-03-16T15:44:00.789Z,101791.00
2023-03-16T15:46:30.822Z,101784.53
2023-03-16T15:48:59.234Z,101787.81
2023-03-16T15:51:30.317Z,101773.81
2023-03-16T15:54:02.854Z,101774.22
2023-03-16T15:56:47.305Z,101780.91
2023-03-16T15:59:22.355Z,101763.31
2023-03-16T16:01:53.034Z,101781.00
2023-03-16T16:04:23.761Z,101770.47
2023-03-16T16:06:55.650Z,101763.59
2023-03-16T16:09:23.922Z,101745.91
2023-03-16T16:11:52.417Z,101760.75
2023-03-16T16:14:24.882Z,101745.75
2023-03-16T16:16:55.643Z,101731.66
2023-03-16T16:19:23.857Z,101758.81
2023-03-16T16:21:52.469Z,101750.88
2023-03-16T16:24:20.825Z,101761.16
2023-03-16T16:26:55.532Z,101748.78
2023-03-16T16:29:25.280Z,101744.56
2023-03-16T16:31:55.706Z,101745.59
2023-03-16T16:34:25.984Z,101730.41
2023-03-16T16:36:54.440Z,101748.84
2023-03-16T16:39:27.701Z,101748.09
2023-03-16T16:41:57.259Z,101689.91
2023-03-16T16:44:33.223Z,101710.34
2023-03-16T16:47:06.613Z,101731.53
2023-03-16T16:49:35.313Z,101726.16
2023-03-16T16:52:03.777Z,101724.13
2023-03-16T16:54:33.530Z,101733.91
2023-03-16T16:57:02.392Z,101727.94
2023-03-16T16:59:33.101Z,101711.97
2023-03-16T17:02:05.075Z,101710.06
2023-03-16T17:04:33.380Z,101714.41
2023-03-16T17:07:03.725Z,101690.69
2023-03-16T17:09:32.114Z,101691.75
2023-03-16T17:12:02.869Z,101696.31
2023-03-16T17:14:32.257Z,101691.06
2023-03-16T17:17:05.306Z,101697.97
2023-03-16T17:19:36.435Z,101710.06
2023-03-16T17:22:05.124Z,101714.63
2023-03-16T17:24:33.485Z,101653.63
2023-03-16T17:27:04.636Z,101705.47
2023-03-16T17:29:33.939Z,101720.53
2023-03-16T17:32:03.906Z,101728.56
2023-03-16T17:34:35.768Z,101730.81
2023-03-16T17:37:03.993Z,101726.72
2023-03-16T17:39:33.986Z,101724.28
2023-03-16T17:42:05.409Z,101731.34
2023-03-16T17:44:36.542Z,101723.16
2023-03-16T17:47:12.512Z,101729.97
2023-03-16T17:49:42.661Z,101735.38
2023-03-16T17:52:20.934Z,101730.94
2023-03-16T17:54:50.341Z,101725.53
2023-03-16T17:57:22.913Z,101726.41
2023-03-16T17:59:51.789Z,101730.81
2023-03-16T18:02:39.626Z,101670.84
2023-03-16T18:05:19.222Z,101721.38
2023-03-16T18:07:48.231Z,101672.66
2023-03-16T18:10:19.259Z,101687.56
2023-03-16T18:12:50.033Z,101730.81
2023-03-16T18:15:19.556Z,101721.97
2023-03-16T18:17:51.098Z,101686.66
2023-03-16T18:20:33.795Z,101726.63
2023-03-16T18:23:03.718Z,101723.06
2023-03-16T18:25:39.189Z,101705.53
2023-03-16T18:28:09.008Z,101709.91
2023-03-16T18:30:39.703Z,101702.09
2023-03-16T18:33:17.003Z,101690.28
2023-03-16T18:35:46.731Z,101686.22
2023-03-16T18:38:20.660Z,101687.78
2023-03-16T18:40:50.046Z,101704.28
2023-03-16T18:43:18.792Z,101704.19
2023-03-16T18:45:47.618Z,101690.34
2023-03-16T18:48:24.893Z,101679.78
2023-03-16T18:51:00.670Z,101679.72
2023-03-16T18:53:29.748Z,101680.00
2023-03-16T18:55:58.904Z,101678.06
2023-03-16T18:58:27.030Z,101683.22
2023-03-16T19:00:57.631Z,101682.44
2023-03-16T19:03:28.083Z,101666.59
2023-03-16T19:06:00.132Z,101651.13
2023-03-16T19:08:30.082Z,101635.25
2023-03-16T19:11:02.085Z,101667.84
2023-03-16T19:13:30.388Z,101651.97
2023-03-16T19:16:00.944Z,101632.41
2023-03-16T19:18:45.785Z,101577.72
2023-03-16T19:21:18.816Z,101645.97
2023-03-16T19:23:54.737Z,101648.50
2023-03-16T19:26:23.071Z,101612.34
2023-03-16T19:28:51.718Z,101656.38
2023-03-16T19:31:27.096Z,101650.31
2023-03-16T19:33:57.084Z,101644.09
2023-03-16T19:36:30.519Z,101652.03
2023-03-16T19:38:59.534Z,101628.50
2023-03-16T19:41:30.302Z,101633.75
2023-03-16T19:44:08.462Z,101639.00
2023-03-16T19:46:38.283Z,101636.16
2023-03-16T19:49:10.252Z,101638.16
2023-03-16T19:51:39.857Z,101639.06
2023-03-16T19:54:08.253Z,101594.13
2023-03-16T19:56:39.387Z,101645.06
2023-03-16T19:59:11.168Z,101646.72
2023-03-16T20:01:43.554Z,101641.41
2023-03-16T20:04:17.911Z,101621.94
2023-03-16T20:06:49.977Z,101630.97
2023-03-16T20:09:19.039Z,101623.81
2023-03-16T20:11:49.080Z,101609.84
2023-03-16T20:14:21.539Z,101616.91
2023-03-16T20:16:49.845Z,101625.59
2023-03-16T20:19:19.737Z,101604.31
2023-03-16T20:21:51.708Z,101627.19
2023-03-16T20:24:22.743Z,101606.28
2023-03-16T20:26:53.032Z,101604.63
2023-03-16T20:29:28.693Z,101613.38
2023-03-16T20:31:58.221Z,101610.84
2023-03-16T20:34:28.241Z,101613.66
2023-03-16T20:36:58.755Z,101608.00
2023-03-16T20:39:38.624Z,101604.59
2023-03-16T20:42:07.766Z,101592.28
2023-03-16T20:44:36.237Z,101588.88
2023-03-16T20:47:04.488Z,101592.19
2023-03-16T20:49:34.338Z,101586.06
2023-03-16T20:52:04.046Z,101604.53
2023-03-16T20:54:32.294Z,101584.19
2023-03-16T20:57:01.250Z,101594.53
2023-03-16T20:59:30.179Z,101590.31
2023-03-16T21:01:58.640Z,101584.13
2023-03-16T21:04:29.910Z,101575.44
2023-03-16T21:06:58.705Z,101592.22
2023-03-16T21:09:32.043Z,101590.56
2023-03-16T21:12:00.603Z,101573.13
2023-03-16T21:14:29.260Z,101559.91
2023-03-16T21:16:58.054Z,101569.69
2023-03-16T21:19:26.486Z,101576.66
2023-03-16T21:21:54.778Z,101574.81
2023-03-16T21:24:23.091Z,101551.66
2023-03-16T21:26:52.853Z,101583.38
2023-03-16T21:29:24.174Z,101586.97
2023-03-16T21:31:53.752Z,101564.09
2023-03-16T21:34:27.968Z,101534.28
2023-03-16T21:36:56.443Z,101551.91
2023-03-16T21:39:25.565Z,101530.53
2023-03-16T21:41:55.497Z,101518.34
2023-03-16T21:44:23.631Z,101544.94
2023-03-16T21:46:52.230Z,101550.31
2023-03-16T21:49:21.204Z,101529.34
2023-03-16T21:51:50.473Z,101534.22
2023-03-16T21:54:20.450Z,101504.78
2023-03-16T21:56:49.074Z,101544.63
2023-03-16T21:59:18.569Z,101534.38
2023-03-16T22:02:00.880Z,101525.69
2023-03-16T22:04:30.069Z,101524.84
2023-03-16T22:06:59.233Z,101521.88
2023-03-16T22:09:30.279Z,101552.53
2023-03-16T22:11:59.094Z,101537.91
2023-03-16T22:14:28.631Z,101544.78
2023-03-16T22:16:57.154Z,101523.97
2023-03-16T22:19:27.217Z,101513.53
2023-03-16T22:21:56.661Z,101525.56
2023-03-16T22:24:28.031Z,101522.91
2023-03-16T22:26:56.875Z,101523.97
2023-03-16T22:29:28.333Z,101511.66
2023-03-16T22:32:01.443Z,101506.25
2023-03-16T22:34:32.986Z,101525.56
2023-03-16T22:37:02.946Z,101502.41
2023-03-16T22:39:34.347Z,101511.25
2023-03-16T22:42:02.416Z,101531.75
2023-03-16T22:44:31.072Z,101523.53
2023-03-16T22:47:00.571Z,101529.97
2023-03-16T22:49:29.519Z,101522.03
2023-03-16T22:51:58.790Z,101532.97
2023-03-16T22:54:30.262Z,101530.84
2023-03-16T22:56:58.580Z,101513.03
2023-03-16T22:59:28.611Z,101523.38
2023-03-16T23:01:57.669Z,101502.47
2023-03-16T23:04:32.732Z,101507.59
2023-03-16T23:07:01.012Z,101464.47
2023-03-16T23:09:29.802Z,101469.09
2023-03-16T23:11:59.638Z,101479.56
2023-03-16T23:14:38.267Z,101480.53
2023-03-16T23:17:17.841Z,101445.84
2023-03-16T23:19:48.695Z,101493.13
2023-03-16T23:22:17.040Z,101496.72
2023-03-16T23:24:45.218Z,101473.91
2023-03-16T23:27:19.461Z,101474.97
2023-03-16T23:29:47.917Z,101468.81
2023-03-16T23:32:17.281Z,101454.47
2023-03-16T23:34:46.270Z,101426.53
2023-03-16T23:37:16.148Z,101434.53
2023-03-16T23:39:44.260Z,101429.47
2023-03-16T23:42:13.307Z,101416.22
2023-03-16T23:44:44.122Z,101393.34
2023-03-16T23:47:12.666Z,101391.69
2023-03-16T23:49:43.661Z,101391.94
2023-03-16T23:52:13.699Z,101402.44
2023-03-16T23:54:43.444Z,101384.88
2023-03-16T23:57:11.564Z,101404.16
2023-03-16T23:59:39.770Z,101395.31
